createdAt,value
2022-10-15T01:40:10.874Z,3.60
2022-10-15T01:42:47.729Z,4.50
2022-10-15T01:45:22.846Z,5.17
2022-10-15T01:48:13.388Z,4.80
2022-10-15T01:50:46.456Z,4.63
2022-10-15T01:53:19.859Z,3.77
2022-10-15T01:55:48.612Z,4.23
2022-10-15T01:58:17.803Z,5.03
2022-10-15T02:00:44.966Z,4.97
2022-10-15T02:03:11.757Z,4.20
2022-10-15T02:05:45.197Z,4.97
2022-10-15T02:08:39.969Z,5.00
2022-10-15T02:11:13.500Z,6.17
2022-10-15T02:13:55.663Z,4.80
2022-10-15T02:16:27.655Z,4.63
2022-10-15T02:19:07.401Z,4.60
2022-10-15T02:21:53.506Z,4.37
2022-10-15T02:24:24.114Z,4.07
2022-10-15T02:26:53.778Z,4.47
2022-10-15T02:29:24.677Z,4.57
2022-10-15T02:31:54.185Z,4.00
2022-10-15T02:34:25.632Z,4.00
2022-10-15T02:36:54.955Z,3.83
2022-10-15T02:39:27.067Z,3.10
2022-10-15T02:41:54.652Z,3.70
2022-10-15T02:44:21.530Z,3.60
2022-10-15T02:46:48.660Z,3.60
2022-10-15T02:49:17.299Z,4.07
2022-10-15T02:51:44.152Z,3.03
2022-10-15T02:54:14.586Z,3.53
2022-10-15T02:56:41.290Z,3.80
2022-10-15T02:59:08.764Z,4.17
2022-10-15T03:01:35.797Z,4.50
2022-10-15T03:04:04.252Z,4.97
2022-10-15T03:06:31.549Z,5.33
2022-10-15T03:08:58.188Z,3.20
2022-10-15T03:11:24.913Z,4.07
2022-10-15T03:13:52.030Z,2.67
2022-10-15T03:16:21.079Z,3.23
2022-10-15T03:18:47.963Z,3.20
2022-10-15T03:21:15.801Z,4.43
2022-10-15T03:23:43.412Z,3.57
2022-10-15T03:26:16.586Z,3.40
2022-10-15T03:28:43.265Z,3.10
2022-10-15T03:31:14.261Z,3.10
2022-10-15T03:33:44.333Z,5.00
2022-10-15T03:36:11.035Z,3.27
2022-10-15T03:38:38.191Z,3.40
2022-10-15T03:41:05.267Z,4.17
2022-10-15T03:43:38.951Z,3.97
2022-10-15T03:46:09.213Z,3.30
2022-10-15T03:48:41.613Z,3.67
2022-10-15T03:51:10.969Z,3.67
2022-10-15T03:53:39.513Z,6.60
2022-10-15T03:56:07.142Z,5.63
2022-10-15T03:58:37.550Z,3.13
2022-10-15T04:01:15.303Z,4.03
2022-10-15T04:03:42.405Z,5.30
2022-10-15T04:06:09.605Z,4.30
2022-10-15T04:08:37.697Z,4.17
2022-10-15T04:11:18.588Z,3.60
2022-10-15T04:13:50.052Z,3.60
2022-10-15T04:16:17.724Z,3.70
2022-10-15T04:18:44.540Z,4.47
2022-10-15T04:21:11.860Z,3.37
2022-10-15T04:23:41.116Z,3.57
2022-10-15T04:26:37.408Z,3.60
2022-10-15T04:29:04.604Z,3.70
2022-10-15T04:31:31.702Z,3.70
2022-10-15T04:33:59.219Z,4.23
2022-10-15T04:36:26.812Z,3.50
2022-10-15T04:39:01.196Z,3.80
2022-10-15T04:41:44.027Z,4.37
2022-10-15T04:44:17.456Z,3.60
2022-10-15T04:46:52.343Z,3.47
2022-10-15T04:49:40.763Z,3.80
2022-10-15T04:52:21.171Z,4.30
2022-10-15T04:54:59.174Z,4.87
2022-10-15T04:57:27.261Z,5.30
2022-10-15T04:59:57.649Z,4.53
2022-10-15T05:02:34.729Z,4.07
2022-10-15T05:05:30.793Z,4.97
2022-10-15T05:08:01.356Z,5.30
2022-10-15T05:10:29.889Z,4.63
2022-10-15T05:12:58.141Z,4.00
2022-10-15T05:15:31.789Z,4.10
2022-10-15T05:17:58.468Z,4.00
2022-10-15T05:20:32.574Z,3.70
2022-10-15T05:22:59.276Z,7.43
2022-10-15T05:25:31.384Z,3.90
2022-10-15T05:27:58.521Z,3.93
2022-10-15T05:30:25.104Z,5.23
2022-10-15T05:32:54.619Z,4.83
2022-10-15T05:35:24.088Z,5.90
2022-10-15T05:38:02.497Z,4.63
2022-10-15T05:40:29.216Z,4.63
2022-10-15T05:43:05.878Z,5.80
2022-10-15T05:45:32.589Z,4.60
2022-10-15T05:48:04.351Z,5.17
2022-10-15T05:50:31.042Z,7.40
2022-10-15T05:52:58.850Z,7.37
2022-10-15T05:55:31.276Z,4.13
2022-10-15T05:58:01.720Z,5.03
2022-10-15T06:00:28.351Z,3.60
2022-10-15T06:02:54.993Z,4.17
2022-10-15T06:05:22.199Z,5.23
2022-10-15T06:07:48.775Z,3.50
2022-10-15T06:10:15.515Z,3.50
2022-10-15T06:12:43.032Z,3.17
2022-10-15T06:15:10.098Z,3.10
2022-10-15T06:17:36.785Z,3.00
2022-10-15T06:20:03.572Z,3.97
2022-10-15T06:22:33.235Z,2.73
2022-10-15T06:24:59.894Z,2.40
2022-10-15T06:27:27.931Z,3.67
2022-10-15T06:29:54.566Z,2.47
2022-10-15T06:32:21.138Z,3.63
2022-10-15T06:34:47.773Z,3.00
2022-10-15T06:37:14.361Z,3.03
2022-10-15T06:39:40.985Z,2.70
2022-10-15T06:42:07.617Z,3.73
2022-10-15T06:44:38.827Z,2.37
2022-10-15T06:47:06.108Z,2.50
2022-10-15T06:49:33.248Z,3.60
2022-10-15T06:52:03.420Z,2.70
2022-10-15T06:54:30.630Z,3.67
2022-10-15T06:56:57.287Z,4.33
2022-10-15T06:59:23.981Z,3.10
2022-10-15T07:01:50.592Z,4.07
2022-10-15T07:04:17.439Z,3.30
2022-10-15T07:06:44.039Z,4.03
2022-10-15T07:09:10.662Z,2.00
2022-10-15T07:11:37.275Z,2.40
2022-10-15T07:14:03.916Z,2.37
2022-10-15T07:16:30.588Z,2.33
2022-10-15T07:18:57.195Z,4.67
2022-10-15T07:21:23.847Z,2.13
2022-10-15T07:23:50.460Z,2.03
2022-10-15T07:26:17.067Z,1.90
2022-10-15T07:28:43.762Z,3.60
2022-10-15T07:31:10.429Z,2.37
2022-10-15T07:33:37.238Z,3.03
2022-10-15T07:36:09.087Z,2.10
2022-10-15T07:38:36.617Z,2.53
2022-10-15T07:41:05.236Z,2.27
2022-10-15T07:43:37.385Z,2.30
2022-10-15T07:46:04.535Z,1.40
2022-10-15T07:48:31.729Z,1.60
2022-10-15T07:51:00.520Z,2.60
2022-10-15T07:53:27.723Z,3.20
2022-10-15T07:56:02.637Z,1.10
2022-10-15T07:58:37.983Z,1.70
2022-10-15T08:01:06.550Z,1.33
2022-10-15T08:03:34.797Z,1.83
2022-10-15T08:06:07.704Z,1.83
2022-10-15T08:08:35.820Z,2.90
2022-10-15T08:11:11.006Z,1.33
2022-10-15T08:13:42.199Z,1.93
2022-10-15T08:16:11.038Z,3.17
2022-10-15T08:18:38.222Z,1.90
2022-10-15T08:21:09.720Z,1.97
2022-10-15T08:23:36.605Z,2.60
2022-10-15T08:26:04.069Z,3.87
2022-10-15T08:28:32.282Z,1.87
2022-10-15T08:31:04.252Z,1.57
2022-10-15T08:33:33.711Z,1.80
2022-10-15T08:36:00.415Z,1.37
2022-10-15T08:38:27.296Z,2.40
2022-10-15T08:40:56.312Z,1.30
2022-10-15T08:43:28.696Z,1.33
2022-10-15T08:46:03.118Z,2.50
2022-10-15T08:48:38.452Z,2.27
2022-10-15T08:51:18.421Z,2.13
2022-10-15T08:53:58.301Z,1.40
2022-10-15T08:56:30.832Z,1.30
2022-10-15T08:59:19.247Z,1.87
2022-10-15T09:02:26.812Z,1.70
2022-10-15T09:05:23.274Z,1.67
2022-10-15T09:08:26.216Z,1.47
2022-10-15T09:10:58.128Z,1.67
2022-10-15T09:13:31.250Z,1.37
2022-10-15T09:16:02.489Z,2.50
2022-10-15T09:18:33.690Z,1.63
2022-10-15T09:21:02.398Z,1.60
2022-10-15T09:23:32.457Z,2.10
2022-10-15T09:26:20.784Z,1.40
2022-10-15T09:29:07.757Z,1.70
2022-10-15T09:31:42.669Z,2.10
2022-10-15T09:34:22.829Z,2.77
2022-10-15T09:37:00.860Z,1.23
2022-10-15T09:39:35.966Z,2.37
2022-10-15T09:42:43.100Z,2.53
2022-10-15T09:45:15.377Z,2.40
2022-10-15T09:47:43.879Z,1.17
2022-10-15T09:50:14.626Z,2.80
2022-10-15T09:53:08.111Z,2.80
2022-10-15T09:55:37.979Z,1.67
2022-10-15T09:58:18.531Z,1.27
2022-10-15T10:00:51.233Z,1.30
2022-10-15T10:03:18.232Z,2.20
2022-10-15T10:05:45.893Z,0.97
2022-10-15T10:08:23.559Z,1.20
2022-10-15T10:10:58.844Z,2.87
2022-10-15T10:13:32.502Z,1.33
2022-10-15T10:16:06.149Z,1.67
2022-10-15T10:18:32.911Z,1.97
2022-10-15T10:21:02.023Z,0.67
2022-10-15T10:23:39.495Z,1.10
2022-10-15T10:26:09.142Z,1.27
2022-10-15T10:28:44.556Z,1.70
2022-10-15T10:31:12.238Z,1.23
2022-10-15T10:33:41.872Z,1.73
2022-10-15T10:36:25.996Z,1.27
2022-10-15T10:39:24.295Z,1.43
2022-10-15T10:42:04.957Z,0.63
2022-10-15T10:44:35.455Z,2.10
2022-10-15T10:47:07.967Z,2.10
2022-10-15T10:49:40.389Z,2.30
2022-10-15T10:52:19.598Z,0.90
2022-10-15T10:54:47.767Z,1.30
2022-10-15T10:57:20.389Z,2.63
2022-10-15T10:59:51.916Z,0.60
2022-10-15T11:02:18.592Z,1.23
2022-10-15T11:04:46.584Z,1.80
2022-10-15T11:07:25.838Z,1.20
2022-10-15T11:10:04.038Z,1.30
2022-10-15T11:12:39.335Z,0.50
2022-10-15T11:15:28.685Z,0.83
2022-10-15T11:18:17.096Z,0.67
2022-10-15T11:20:58.733Z,0.60
2022-10-15T11:23:42.102Z,0.60
2022-10-15T11:26:26.992Z,0.60
2022-10-15T11:29:12.697Z,2.53
2022-10-15T11:32:02.712Z,0.50
2022-10-15T11:34:58.522Z,1.07
2022-10-15T11:37:49.558Z,0.93
2022-10-15T11:40:49.039Z,0.57
2022-10-15T11:43:21.493Z,0.33
2022-10-15T11:46:08.660Z,0.40
2022-10-15T11:48:57.612Z,0.30
2022-10-15T11:51:37.003Z,0.30
2022-10-15T11:54:13.239Z,0.90
2022-10-15T11:56:45.839Z,1.30
2022-10-15T11:59:16.498Z,0.43
2022-10-15T12:01:59.991Z,0.30
2022-10-15T12:04:36.287Z,1.30
2022-10-15T12:07:06.727Z,0.80
2022-10-15T12:09:39.996Z,1.13
2022-10-15T12:12:33.608Z,0.70
2022-10-15T12:15:43.286Z,3.00
2022-10-15T12:18:43.625Z,1.33
2022-10-15T12:21:37.467Z,0.60
2022-10-15T12:24:10.628Z,1.67
2022-10-15T12:26:37.615Z,0.90
2022-10-15T12:29:19.266Z,1.20
2022-10-15T12:31:50.862Z,0.60
2022-10-15T12:34:43.173Z,0.40
2022-10-15T12:37:18.735Z,1.77
2022-10-15T12:39:52.310Z,0.63
2022-10-15T12:42:31.072Z,1.67
2022-10-15T12:45:02.672Z,1.13
2022-10-15T12:47:49.507Z,1.70
2022-10-15T12:50:31.064Z,0.90
2022-10-15T12:53:02.882Z,1.23
2022-10-15T12:55:37.836Z,0.67
2022-10-15T12:58:24.776Z,1.20
2022-10-15T13:00:51.560Z,1.20
2022-10-15T13:03:18.137Z,1.67
2022-10-15T13:05:47.760Z,1.10
2022-10-15T13:08:24.577Z,1.93
2022-10-15T13:11:00.989Z,1.97
2022-10-15T13:13:33.849Z,2.30
2022-10-15T13:16:07.103Z,1.80
2022-10-15T13:18:33.868Z,0.73
2022-10-15T13:23:33.610Z,1.00
2022-10-15T13:26:18.574Z,0.70
2022-10-15T13:28:46.315Z,0.67
2022-10-15T13:31:17.764Z,0.33
2022-10-15T13:33:48.026Z,0.87
2022-10-15T13:36:34.951Z,1.50
2022-10-15T13:39:06.548Z,1.10
2022-10-15T13:41:40.383Z,0.80
2022-10-15T13:44:18.409Z,1.20
2022-10-15T13:46:45.493Z,0.30
2022-10-15T13:49:13.412Z,0.77
2022-10-15T13:51:44.138Z,0.50
2022-10-15T13:54:15.517Z,1.03
2022-10-15T13:56:49.556Z,0.93
2022-10-15T13:59:18.482Z,0.70
2022-10-15T14:01:47.542Z,1.13
2022-10-15T14:04:17.570Z,2.37
2022-10-15T14:06:57.175Z,0.40
2022-10-15T14:09:30.423Z,1.83
2022-10-15T14:12:02.303Z,1.27
2022-10-15T14:14:48.191Z,0.83
2022-10-15T14:17:25.576Z,0.50
2022-10-15T14:20:14.316Z,0.93
2022-10-15T14:22:41.133Z,1.07
2022-10-15T14:27:38.447Z,1.20
2022-10-15T14:30:20.755Z,2.10
2022-10-15T14:32:51.983Z,0.27
2022-10-15T14:35:26.268Z,1.40
2022-10-15T14:38:02.529Z,0.50
2022-10-15T14:40:29.954Z,0.37
2022-10-15T14:43:05.072Z,1.23
2022-10-15T14:45:54.063Z,1.07
2022-10-15T14:48:24.675Z,0.63
2022-10-15T14:50:51.514Z,0.40
2022-10-15T14:53:24.238Z,1.30
2022-10-15T14:55:56.763Z,0.50
2022-10-15T14:58:26.410Z,0.80
2022-10-15T15:01:02.650Z,0.27
2022-10-15T15:03:41.506Z,1.83
2022-10-15T15:06:09.061Z,1.87
2022-10-15T15:08:36.007Z,0.87
2022-10-15T15:11:05.412Z,2.20
2022-10-15T15:13:41.413Z,1.13
2022-10-15T15:16:12.604Z,0.60
2022-10-15T15:18:39.335Z,1.27
2022-10-15T15:21:10.477Z,0.73
2022-10-15T15:23:37.144Z,2.23
2022-10-15T15:26:03.767Z,0.70
2022-10-15T15:28:30.456Z,1.20
2022-10-15T15:30:59.609Z,2.30
2022-10-15T15:33:28.199Z,2.07
2022-10-15T15:36:07.919Z,3.67
2022-10-15T15:41:04.388Z,1.57
2022-10-15T15:43:31.143Z,2.00
2022-10-15T15:45:58.029Z,3.43
2022-10-15T15:48:24.943Z,1.87
2022-10-15T15:50:52.058Z,1.23
2022-10-15T15:53:19.150Z,1.23
2022-10-15T15:55:45.860Z,2.93
2022-10-15T15:58:12.764Z,2.03
2022-10-15T16:00:39.420Z,3.30
2022-10-15T16:03:06.100Z,4.77
2022-10-15T16:05:32.692Z,1.63
2022-10-15T16:07:59.292Z,2.07
2022-10-15T16:10:25.979Z,1.60
2022-10-15T16:12:52.710Z,1.47
2022-10-15T16:15:19.326Z,3.20
2022-10-15T16:17:45.967Z,3.33
2022-10-15T16:20:15.361Z,1.53
2022-10-15T16:22:42.714Z,2.30
2022-10-15T16:25:09.876Z,2.17
2022-10-15T16:27:36.613Z,2.03
2022-10-15T16:30:03.986Z,1.77
2022-10-15T16:32:33.381Z,1.57
2022-10-15T16:35:00.825Z,0.70
2022-10-15T16:37:27.693Z,1.77
2022-10-15T16:39:54.975Z,1.50
2022-10-15T16:42:21.711Z,2.20
2022-10-15T16:44:48.301Z,2.13
2022-10-15T16:47:14.955Z,2.37
2022-10-15T16:49:42.882Z,2.03
2022-10-15T16:52:09.979Z,1.43
2022-10-15T16:54:36.832Z,1.67
2022-10-15T16:57:03.541Z,2.87
2022-10-15T16:59:30.415Z,1.87
2022-10-15T17:01:57.206Z,2.50
2022-10-15T17:04:23.837Z,1.37
2022-10-15T17:06:50.441Z,3.03
2022-10-15T17:09:17.036Z,1.07
2022-10-15T17:11:46.027Z,1.73
2022-10-15T17:14:15.030Z,1.73
2022-10-15T17:16:48.193Z,0.87
2022-10-15T17:19:20.773Z,1.13
2022-10-15T17:21:47.877Z,1.87
2022-10-15T17:24:16.553Z,2.87
2022-10-15T17:26:44.670Z,1.47
2022-10-15T17:29:25.418Z,2.10
2022-10-15T17:31:53.229Z,3.33
2022-10-15T17:34:21.538Z,1.67
2022-10-15T17:36:49.280Z,2.50
2022-10-15T17:39:19.060Z,1.50
2022-10-15T17:41:46.626Z,4.53
2022-10-15T17:44:13.546Z,3.60
2022-10-15T17:46:40.605Z,2.80
2022-10-15T17:49:09.571Z,2.60
2022-10-15T17:51:36.851Z,1.77
2022-10-15T17:54:05.374Z,1.80
2022-10-15T17:56:38.373Z,2.97
2022-10-15T17:59:07.470Z,1.93
2022-10-15T18:04:24.215Z,3.33
2022-10-15T18:06:50.781Z,2.53
2022-10-15T18:09:27.368Z,4.03
2022-10-15T18:12:01.446Z,2.60
2022-10-15T18:14:30.263Z,3.87
2022-10-15T18:16:57.123Z,3.43
2022-10-15T18:19:25.740Z,2.40
2022-10-15T18:21:53.129Z,3.40
2022-10-15T18:24:21.725Z,1.40
2022-10-15T18:26:49.809Z,2.23
2022-10-15T18:29:16.907Z,3.47
2022-10-15T18:31:45.181Z,2.50
2022-10-15T18:34:11.935Z,3.10
2022-10-15T18:36:41.677Z,2.67
2022-10-15T18:39:08.602Z,1.83
2022-10-15T18:41:37.551Z,2.53
2022-10-15T18:44:07.238Z,3.77
2022-10-15T18:46:34.995Z,2.43
2022-10-15T18:49:02.823Z,2.27
2022-10-15T18:51:31.017Z,1.87
2022-10-15T18:54:00.097Z,3.83
2022-10-15T18:56:27.353Z,2.57
2022-10-15T18:58:54.652Z,2.90
2022-10-15T19:01:26.737Z,8.03
2022-10-15T19:03:55.064Z,2.23
2022-10-15T19:06:24.632Z,2.80
2022-10-15T19:08:51.808Z,2.37
2022-10-15T19:11:19.577Z,4.40
2022-10-15T19:13:46.325Z,6.50
2022-10-15T19:16:13.057Z,2.73
2022-10-15T19:18:40.261Z,3.53
2022-10-15T19:21:07.021Z,4.03
2022-10-15T19:23:34.400Z,3.70
2022-10-15T19:26:01.449Z,4.53
2022-10-15T19:28:28.995Z,4.00
2022-10-15T19:30:57.809Z,4.93
2022-10-15T19:33:26.719Z,3.67
2022-10-15T19:35:53.716Z,3.27
2022-10-15T19:38:20.473Z,4.20
2022-10-15T19:40:49.470Z,3.60
2022-10-15T19:43:18.688Z,4.20
2022-10-15T19:45:46.474Z,3.47
2022-10-15T19:48:19.424Z,2.57
2022-10-15T19:50:47.077Z,3.40
2022-10-15T19:53:16.512Z,4.07
2022-10-15T19:55:44.787Z,3.73
2022-10-15T19:58:11.657Z,6.10
2022-10-15T20:00:38.488Z,4.03
2022-10-15T20:03:05.225Z,5.27
2022-10-15T20:05:32.288Z,3.40
2022-10-15T20:08:00.608Z,2.70
2022-10-15T20:10:27.373Z,3.30
2022-10-15T20:12:53.910Z,2.80
2022-10-15T20:15:21.118Z,2.37
2022-10-15T20:17:48.193Z,2.37
2022-10-15T20:20:15.347Z,2.70
2022-10-15T20:22:42.168Z,5.50
2022-10-15T20:25:09.688Z,3.17
2022-10-15T20:27:36.295Z,2.87
2022-10-15T20:30:04.223Z,2.60
2022-10-15T20:32:35.341Z,3.20
2022-10-15T20:35:04.174Z,2.80
2022-10-15T20:37:30.776Z,3.23
2022-10-15T20:39:57.886Z,3.30
2022-10-15T20:42:25.171Z,2.73
2022-10-15T20:44:52.358Z,3.53
2022-10-15T20:47:19.079Z,4.00
2022-10-15T20:49:51.347Z,2.87
2022-10-15T20:52:18.165Z,3.10
2022-10-15T20:54:45.249Z,3.13
2022-10-15T20:57:12.798Z,4.17
2022-10-15T20:59:39.381Z,7.53
2022-10-15T21:02:06.236Z,3.13
2022-10-15T21:04:32.862Z,3.97
2022-10-15T21:06:59.498Z,4.43
2022-10-15T21:09:26.337Z,4.70
2022-10-15T21:11:53.423Z,3.80
2022-10-15T21:14:20.193Z,5.73
2022-10-15T21:16:46.817Z,6.27
2022-10-15T21:19:14.824Z,4.93
2022-10-15T21:21:41.671Z,4.17
2022-10-15T21:24:08.367Z,3.13
2022-10-15T21:26:35.046Z,3.97
2022-10-15T21:29:01.854Z,2.80
2022-10-15T21:31:28.517Z,3.93
2022-10-15T21:33:55.652Z,3.50
2022-10-15T21:36:26.299Z,3.47
2022-10-15T21:38:58.582Z,2.87
2022-10-15T21:41:26.615Z,3.10
2022-10-15T21:43:53.478Z,3.40
2022-10-15T21:46:20.795Z,2.97
2022-10-15T21:48:47.715Z,3.50
2022-10-15T21:51:17.417Z,4.83
2022-10-15T21:53:44.411Z,2.00
2022-10-15T21:56:11.487Z,3.77
2022-10-15T21:58:39.841Z,2.43
2022-10-15T22:01:31.155Z,2.37
2022-10-15T22:04:00.370Z,2.17
2022-10-15T22:06:27.426Z,2.77
2022-10-15T22:08:54.020Z,2.30
2022-10-15T22:11:41.311Z,4.00
2022-10-15T22:14:14.060Z,1.93
2022-10-15T22:16:41.932Z,3.97
2022-10-15T22:19:10.468Z,2.93
2022-10-15T22:21:38.550Z,1.60
2022-10-15T22:24:13.543Z,5.90
2022-10-15T22:26:43.080Z,2.33
2022-10-15T22:29:17.569Z,2.33
2022-10-15T22:31:44.382Z,1.80
2022-10-15T22:34:11.027Z,3.00
2022-10-15T22:36:37.964Z,1.70
2022-10-15T22:39:06.309Z,3.07
2022-10-15T22:41:39.659Z,3.20
2022-10-15T22:44:13.200Z,2.60
2022-10-15T22:46:40.794Z,2.43
2022-10-15T22:49:08.350Z,2.27
2022-10-15T22:51:35.061Z,4.07
2022-10-15T22:54:02.102Z,2.43
2022-10-15T22:56:29.420Z,4.27
2022-10-15T22:58:57.049Z,4.27
2022-10-15T23:01:27.600Z,3.80
2022-10-15T23:03:57.487Z,4.23
2022-10-15T23:06:25.248Z,3.07
2022-10-15T23:08:52.062Z,2.80
2022-10-15T23:11:24.272Z,2.50
2022-10-15T23:14:03.451Z,1.67
2022-10-15T23:16:35.943Z,3.40
2022-10-15T23:19:05.047Z,2.53
2022-10-15T23:21:40.039Z,2.87
2022-10-15T23:24:07.264Z,2.03
2022-10-15T23:26:34.346Z,4.50
2022-10-15T23:29:02.722Z,2.17
2022-10-15T23:31:32.568Z,2.50
2022-10-15T23:33:59.873Z,3.10
2022-10-15T23:36:28.346Z,3.23
2022-10-15T23:38:58.038Z,1.50
2022-10-15T23:41:26.087Z,1.67
2022-10-15T23:43:53.043Z,1.70
2022-10-15T23:46:20.016Z,1.70
2022-10-15T23:48:47.235Z,1.30
2022-10-15T23:51:28.098Z,2.90
2022-10-15T23:53:57.799Z,1.17
2022-10-15T23:56:25.381Z,1.70
2022-10-15T23:58:56.839Z,2.20
